Time;durP1;ratioP1;P1;durP2;ratioP2;P2;SDS_P1;SDS_P2;PMS_P1;PMS_P2;Temp;Humidity;BMP_temperature;BMP_pressure;BME280_temperature;BME280_humidity;BME280_pressure;Samples;Min_cycle;Max_cycle;Signal;HPM_P1;HPM_P2
2021/09/18 00:01:21;;;;;;;0.10;0.10;;;;;;;;;;5060018;28;20361;-81
2021/09/18 00:03:47;;;;;;;0.00;0.00;;;;;;;;;;5059621;28;20067;-81
2021/09/18 00:06:13;;;;;;;0.52;0.52;;;;;;;;;;5058986;28;20037;-81
2021/09/18 00:08:39;;;;;;;0.00;0.00;;;;;;;;;;5063013;28;20082;-80
2021/09/18 00:11:05;;;;;;;0.10;0.10;;;;;;;;;;5050384;28;20034;-81
2021/09/18 00:13:32;;;;;;;0.10;0.10;;;;;;;;;;5059082;28;20082;-81
2021/09/18 00:15:58;;;;;;;0.13;0.13;;;;;;;;;;5060110;28;20423;-80
2021/09/18 00:18:24;;;;;;;0.65;0.65;;;;;;;;;;5056147;28;20090;-81
2021/09/18 00:20:50;;;;;;;0.20;0.20;;;;;;;;;;5038727;28;20037;-80
2021/09/18 00:23:16;;;;;;;0.10;0.10;;;;;;;;;;5056745;28;20370;-81
2021/09/18 00:25:43;;;;;;;1.45;0.30;;;;;;;;;;5057973;28;20046;-81
2021/09/18 00:28:09;;;;;;;0.17;0.17;;;;;;;;;;5062577;28;20447;-81
2021/09/18 00:30:35;;;;;;;0.33;0.33;;;;;;;;;;5058068;28;20081;-81
2021/09/18 00:33:04;;;;;;;0.22;0.22;;;;;;;;;;5059214;28;20487;-81
2021/09/18 00:35:30;;;;;;;0.38;0.38;;;;;;;;;;5056716;28;20024;-81
2021/09/18 00:37:56;;;;;;;0.20;0.20;;;;;;;;;;5061260;28;20729;-80
2021/09/18 00:40:22;;;;;;;0.10;0.10;;;;;;;;;;5063010;28;20147;-81
2021/09/18 00:42:48;;;;;;;0.23;0.23;;;;;;;;;;5041309;28;20051;-81
2021/09/18 00:45:14;;;;;;;0.67;0.67;;;;;;;;;;5060689;28;20115;-80
2021/09/18 00:47:40;;;;;;;0.20;0.20;;;;;;;;;;5058883;28;20496;-81
2021/09/18 00:50:07;;;;;;;0.20;0.20;;;;;;;;;;5061637;28;20295;-80
2021/09/18 00:52:33;;;;;;;0.45;0.45;;;;;;;;;;5055120;28;20136;-81
2021/09/18 00:54:59;;;;;;;0.25;0.25;;;;;;;;;;5052135;28;20025;-81
2021/09/18 00:57:25;;;;;;;0.10;0.10;;;;;;;;;;5058960;28;20579;-81
2021/09/18 00:59:51;;;;;;;0.27;0.27;;;;;;;;;;5046174;28;20042;-80
2021/09/18 01:02:17;;;;;;;0.20;0.20;;;;;;;;;;5061910;28;20036;-80
2021/09/18 01:04:43;;;;;;;0.20;0.20;;;;;;;;;;5060787;28;20162;-80
2021/09/18 01:07:09;;;;;;;0.13;0.07;;;;;;;;;;5059961;28;20039;-81
2021/09/18 01:09:35;;;;;;;0.10;0.10;;;;;;;;;;5060868;28;20082;-81
2021/09/18 01:12:05;;;;;;;0.10;0.10;;;;;;;;;;5058465;28;20313;-80
2021/09/18 01:14:31;;;;;;;1.38;0.98;;;;;;;;;;5061790;28;20032;-80
2021/09/18 01:16:57;;;;;;;0.10;0.10;;;;;;;;;;5059970;28;20032;-80
2021/09/18 01:19:23;;;;;;;0.10;0.10;;;;;;;;;;5057747;28;20032;-81
2021/09/18 01:21:50;;;;;;;0.20;0.20;;;;;;;;;;5062530;28;20036;-79
2021/09/18 01:24:16;;;;;;;0.55;0.20;;;;;;;;;;5058213;28;20107;-80
2021/09/18 01:26:42;;;;;;;6.05;1.95;;;;;;;;;;5062012;28;20080;-80
2021/09/18 01:29:09;;;;;;;0.20;0.20;;;;;;;;;;5058860;28;20032;-81
2021/09/18 01:31:39;;;;;;;0.10;0.10;;;;;;;;;;5060054;28;20055;-80
2021/09/18 01:34:05;;;;;;;0.30;0.30;;;;;;;;;;5060522;28;20123;-82
2021/09/18 01:36:31;;;;;;;0.27;0.27;;;;;;;;;;5061244;28;20052;-81
2021/09/18 01:38:57;;;;;;;0.10;0.10;;;;;;;;;;5061530;28;20297;-81
2021/09/18 01:41:23;;;;;;;0.70;0.70;;;;;;;;;;5063190;28;20028;-82
2021/09/18 01:43:49;;;;;;;0.10;0.10;;;;;;;;;;5063655;28;20493;-81
2021/09/18 01:46:15;;;;;;;0.20;0.20;;;;;;;;;;5056795;28;20059;-81
2021/09/18 01:48:41;;;;;;;0.20;0.20;;;;;;;;;;5057204;28;20099;-80
2021/09/18 01:51:12;;;;;;;0.37;0.37;;;;;;;;;;5057785;28;20521;-81
2021/09/18 01:53:38;;;;;;;5.38;2.05;;;;;;;;;;5050967;28;20045;-81
2021/09/18 01:56:04;;;;;;;0.10;0.10;;;;;;;;;;5060536;28;20082;-80
2021/09/18 01:58:30;;;;;;;0.15;0.15;;;;;;;;;;5057861;28;20021;-80
2021/09/18 02:00:59;;;;;;;0.30;0.30;;;;;;;;;;5061720;28;20041;-80
2021/09/18 02:03:25;;;;;;;0.17;0.17;;;;;;;;;;5057373;28;20036;-80
2021/09/18 02:05:51;;;;;;;0.15;0.15;;;;;;;;;;5061606;28;20028;-80
2021/09/18 02:08:17;;;;;;;0.30;0.13;;;;;;;;;;5035483;28;20852;-81
2021/09/18 02:10:43;;;;;;;0.30;0.30;;;;;;;;;;5060597;28;20294;-82
2021/09/18 02:13:10;;;;;;;0.40;0.40;;;;;;;;;;5056192;28;20569;-81
2021/09/18 02:15:37;;;;;;;0.90;0.60;;;;;;;;;;5059582;28;20032;-81
2021/09/18 02:18:04;;;;;;;0.52;0.52;;;;;;;;;;5056706;28;20083;-80
2021/09/18 02:20:31;;;;;;;0.20;0.20;;;;;;;;;;5051610;28;20044;-81
2021/09/18 02:22:58;;;;;;;0.43;0.35;;;;;;;;;;5063650;28;20059;-81
2021/09/18 02:25:24;;;;;;;0.43;0.43;;;;;;;;;;5057410;28;20036;-81
2021/09/18 02:27:51;;;;;;;0.30;0.30;;;;;;;;;;5060228;28;20059;-80
2021/09/18 02:30:18;;;;;;;0.10;0.10;;;;;;;;;;5059147;28;20141;-81
2021/09/18 02:32:45;;;;;;;0.10;0.10;;;;;;;;;;5060446;28;20033;-80
2021/09/18 02:35:12;;;;;;;0.10;0.10;;;;;;;;;;5060094;28;20036;-81
2021/09/18 02:37:38;;;;;;;0.30;0.30;;;;;;;;;;5058963;28;20051;-81
2021/09/18 02:40:05;;;;;;;0.85;0.43;;;;;;;;;;5043476;28;20500;-81
2021/09/18 02:42:31;;;;;;;0.20;0.20;;;;;;;;;;5060139;28;20029;-81
2021/09/18 02:44:57;;;;;;;0.10;0.10;;;;;;;;;;5060480;28;20108;-81
2021/09/18 02:47:23;;;;;;;0.10;0.10;;;;;;;;;;5055899;28;20858;-81
2021/09/18 02:49:49;;;;;;;0.37;0.30;;;;;;;;;;5062167;28;20462;-81
2021/09/18 02:52:15;;;;;;;0.45;0.45;;;;;;;;;;5056150;28;20170;-81
2021/09/18 02:54:41;;;;;;;0.23;0.23;;;;;;;;;;5063324;28;20055;-81
2021/09/18 02:57:07;;;;;;;0.10;0.10;;;;;;;;;;5057740;28;20047;-81
2021/09/18 02:59:33;;;;;;;0.10;0.10;;;;;;;;;;5062471;28;20043;-80
2021/09/18 03:01:59;;;;;;;0.30;0.30;;;;;;;;;;5066979;28;20144;-81
2021/09/18 03:04:25;;;;;;;0.20;0.20;;;;;;;;;;5062917;28;20031;-81
2021/09/18 03:06:51;;;;;;;0.40;0.40;;;;;;;;;;5055674;28;20030;-81
2021/09/18 03:09:17;;;;;;;0.40;0.40;;;;;;;;;;5062876;28;20035;-82
2021/09/18 03:11:43;;;;;;;0.20;0.20;;;;;;;;;;5048636;28;20032;-81
2021/09/18 03:14:09;;;;;;;0.30;0.30;;;;;;;;;;5050084;28;20485;-81
2021/09/18 03:16:35;;;;;;;0.00;0.00;;;;;;;;;;5062509;28;20033;-81
2021/09/18 03:19:01;;;;;;;0.73;0.30;;;;;;;;;;5056858;28;20102;-81
2021/09/18 03:21:27;;;;;;;14.57;0.97;;;;;;;;;;5060830;28;20025;-81
2021/09/18 03:23:53;;;;;;;0.20;0.20;;;;;;;;;;5063328;28;20025;-82
2021/09/18 03:26:20;;;;;;;0.20;0.20;;;;;;;;;;5063140;28;20032;-82
2021/09/18 03:28:46;;;;;;;0.20;0.20;;;;;;;;;;5050993;28;20497;-83
2021/09/18 03:31:12;;;;;;;0.10;0.10;;;;;;;;;;5064631;28;20417;-82
2021/09/18 03:33:39;;;;;;;0.40;0.40;;;;;;;;;;5059543;28;20040;-82
2021/09/18 03:36:05;;;;;;;0.20;0.20;;;;;;;;;;5062226;28;20083;-82
2021/09/18 03:38:31;;;;;;;0.10;0.10;;;;;;;;;;5057635;28;20059;-81
2021/09/18 03:40:57;;;;;;;0.20;0.20;;;;;;;;;;5056899;28;20036;-81
2021/09/18 03:43:23;;;;;;;0.20;0.20;;;;;;;;;;5059453;28;20036;-81
2021/09/18 03:45:51;;;;;;;0.20;0.20;;;;;;;;;;5061899;28;20151;-82
2021/09/18 03:48:17;;;;;;;0.28;0.28;;;;;;;;;;5063402;28;20241;-82
2021/09/18 03:50:44;;;;;;;0.07;0.07;;;;;;;;;;5061962;28;20049;-81
2021/09/18 03:53:10;;;;;;;0.10;0.10;;;;;;;;;;5064419;28;20071;-81
2021/09/18 03:55:36;;;;;;;0.10;0.10;;;;;;;;;;5062656;28;20041;-81
2021/09/18 03:58:02;;;;;;;0.40;0.20;;;;;;;;;;5061414;28;20107;-80
2021/09/18 04:00:28;;;;;;;0.00;0.00;;;;;;;;;;5046802;28;20461;-81
2021/09/18 04:02:54;;;;;;;0.10;0.10;;;;;;;;;;5061958;28;20079;-80
2021/09/18 04:05:20;;;;;;;2.33;0.57;;;;;;;;;;5058427;28;20024;-80
2021/09/18 04:07:46;;;;;;;0.27;0.27;;;;;;;;;;5061592;28;20455;-79
2021/09/18 04:10:12;;;;;;;0.10;0.10;;;;;;;;;;5048423;28;20450;-80
2021/09/18 04:12:38;;;;;;;0.10;0.10;;;;;;;;;;5057438;28;20468;-81
2021/09/18 04:15:04;;;;;;;0.13;0.13;;;;;;;;;;5050275;28;20434;-80
2021/09/18 04:17:30;;;;;;;0.10;0.10;;;;;;;;;;5062816;28;20033;-80
2021/09/18 04:19:56;;;;;;;0.20;0.20;;;;;;;;;;5062098;28;20044;-80
2021/09/18 04:22:22;;;;;;;0.37;0.37;;;;;;;;;;5057320;28;20024;-80
2021/09/18 04:24:48;;;;;;;0.13;0.13;;;;;;;;;;5060563;28;20028;-79
2021/09/18 04:27:15;;;;;;;0.10;0.10;;;;;;;;;;5063511;28;20033;-80
2021/09/18 04:29:41;;;;;;;0.10;0.10;;;;;;;;;;5060531;28;20502;-80
2021/09/18 04:32:07;;;;;;;0.10;0.10;;;;;;;;;;5061394;28;21162;-79
2021/09/18 04:34:33;;;;;;;0.67;0.67;;;;;;;;;;5060149;28;20043;-80
2021/09/18 04:36:59;;;;;;;0.10;0.10;;;;;;;;;;5061632;28;20025;-80
2021/09/18 04:39:25;;;;;;;0.33;0.33;;;;;;;;;;5059369;28;20502;-79
2021/09/18 04:41:52;;;;;;;0.15;0.15;;;;;;;;;;5057964;28;20341;-80
2021/09/18 04:44:18;;;;;;;0.10;0.10;;;;;;;;;;5048664;28;20048;-80
2021/09/18 04:46:44;;;;;;;0.30;0.30;;;;;;;;;;5062550;28;20059;-81
2021/09/18 04:49:10;;;;;;;2.30;1.00;;;;;;;;;;5061233;28;20390;-83
2021/09/18 04:51:36;;;;;;;0.30;0.30;;;;;;;;;;5062242;28;20295;-82
2021/09/18 04:54:03;;;;;;;0.35;0.35;;;;;;;;;;5061218;28;20716;-83
2021/09/18 04:56:29;;;;;;;0.10;0.10;;;;;;;;;;5062694;28;20024;-83
2021/09/18 04:58:55;;;;;;;0.10;0.10;;;;;;;;;;5061298;28;20043;-82
2021/09/18 05:01:21;;;;;;;0.20;0.20;;;;;;;;;;5059365;28;20508;-83
2021/09/18 05:03:47;;;;;;;0.10;0.10;;;;;;;;;;5058267;28;20115;-82
2021/09/18 05:06:13;;;;;;;0.35;0.30;;;;;;;;;;5045247;28;20367;-82
2021/09/18 05:08:39;;;;;;;0.30;0.30;;;;;;;;;;5061089;28;20477;-82
2021/09/18 05:11:05;;;;;;;0.20;0.20;;;;;;;;;;5062409;28;20279;-82
2021/09/18 05:13:31;;;;;;;0.10;0.10;;;;;;;;;;5050085;28;20040;-82
2021/09/18 05:15:57;;;;;;;0.10;0.10;;;;;;;;;;5057324;28;20032;-82
2021/09/18 05:18:23;;;;;;;0.07;0.07;;;;;;;;;;5062516;28;20316;-80
2021/09/18 05:20:49;;;;;;;0.33;0.33;;;;;;;;;;5045540;28;20033;-80
2021/09/18 05:23:15;;;;;;;0.20;0.20;;;;;;;;;;5063260;28;20037;-79
2021/09/18 05:25:41;;;;;;;0.77;0.30;;;;;;;;;;5061799;28;20638;-80
2021/09/18 05:28:07;;;;;;;0.10;0.10;;;;;;;;;;5057670;28;20424;-80
2021/09/18 05:30:33;;;;;;;0.40;0.40;;;;;;;;;;5060365;28;20100;-81
2021/09/18 05:32:59;;;;;;;0.20;0.20;;;;;;;;;;5059538;28;20147;-80
2021/09/18 05:35:25;;;;;;;0.80;0.40;;;;;;;;;;5059532;28;20035;-80
2021/09/18 05:37:51;;;;;;;0.30;0.30;;;;;;;;;;5062465;28;20429;-80
2021/09/18 05:40:17;;;;;;;0.30;0.30;;;;;;;;;;5053442;28;20025;-81
2021/09/18 05:42:43;;;;;;;0.20;0.20;;;;;;;;;;5058428;28;20107;-81
2021/09/18 05:45:10;;;;;;;0.30;0.30;;;;;;;;;;5038177;28;20112;-81
2021/09/18 05:47:36;;;;;;;0.10;0.10;;;;;;;;;;5049421;28;20026;-81
2021/09/18 05:50:02;;;;;;;0.10;0.10;;;;;;;;;;5066456;28;20118;-80
2021/09/18 05:52:28;;;;;;;0.28;0.28;;;;;;;;;;5063659;28;20040;-80
2021/09/18 05:54:54;;;;;;;0.10;0.10;;;;;;;;;;5061365;28;20056;-81
2021/09/18 05:57:21;;;;;;;0.30;0.30;;;;;;;;;;5063089;28;20307;-82
2021/09/18 05:59:47;;;;;;;0.10;0.10;;;;;;;;;;5064712;28;20055;-82
2021/09/18 06:02:13;;;;;;;0.10;0.10;;;;;;;;;;5062414;28;20032;-80
2021/09/18 06:04:39;;;;;;;0.10;0.10;;;;;;;;;;5048921;28;20059;-80
2021/09/18 06:07:05;;;;;;;0.10;0.10;;;;;;;;;;5060898;28;20506;-81
2021/09/18 06:09:31;;;;;;;0.20;0.20;;;;;;;;;;5061371;28;20042;-81
2021/09/18 06:11:57;;;;;;;0.10;0.10;;;;;;;;;;5055483;28;20029;-81
2021/09/18 06:14:23;;;;;;;1.27;0.45;;;;;;;;;;5059030;28;20493;-82
2021/09/18 06:16:49;;;;;;;0.10;0.10;;;;;;;;;;5063447;28;20056;-81
2021/09/18 06:19:18;;;;;;;0.20;0.20;;;;;;;;;;5054481;28;20497;-81
2021/09/18 06:21:45;;;;;;;0.10;0.10;;;;;;;;;;5052403;28;20533;-82
2021/09/18 06:24:11;;;;;;;0.13;0.13;;;;;;;;;;5051058;28;20039;-81
2021/09/18 06:26:38;;;;;;;0.10;0.10;;;;;;;;;;5053518;28;20488;-81
2021/09/18 06:29:05;;;;;;;0.10;0.10;;;;;;;;;;5055793;28;20031;-83
2021/09/18 06:31:31;;;;;;;0.05;0.05;;;;;;;;;;5051148;28;20079;-83
2021/09/18 06:33:57;;;;;;;0.05;0.05;;;;;;;;;;5058347;28;20527;-84
2021/09/18 06:36:23;;;;;;;0.30;0.30;;;;;;;;;;5054341;28;20079;-85
2021/09/18 06:38:50;;;;;;;0.00;0.00;;;;;;;;;;5050303;28;20291;-85
2021/09/18 06:41:16;;;;;;;0.00;0.00;;;;;;;;;;5051136;28;20162;-85
2021/09/18 06:43:42;;;;;;;0.00;0.00;;;;;;;;;;5049637;28;20029;-84
2021/09/18 06:46:08;;;;;;;0.13;0.13;;;;;;;;;;5056754;28;20170;-84
2021/09/18 06:48:34;;;;;;;0.63;0.20;;;;;;;;;;5052448;28;20481;-83
2021/09/18 06:51:00;;;;;;;0.10;0.10;;;;;;;;;;5050614;28;20052;-84
2021/09/18 06:53:26;;;;;;;0.20;0.20;;;;;;;;;;5054239;28;20076;-87
2021/09/18 06:55:53;;;;;;;0.00;0.00;;;;;;;;;;5052501;28;20048;-84
2021/09/18 06:58:19;;;;;;;0.50;0.32;;;;;;;;;;5050249;28;20029;-84
2021/09/18 07:00:45;;;;;;;0.00;0.00;;;;;;;;;;5051617;28;20135;-83
2021/09/18 07:03:11;;;;;;;0.22;0.22;;;;;;;;;;5053766;28;20032;-84
2021/09/18 07:05:37;;;;;;;0.30;0.20;;;;;;;;;;5048062;28;20132;-84
2021/09/18 07:08:03;;;;;;;0.10;0.10;;;;;;;;;;5039326;28;20067;-85
2021/09/18 07:10:29;;;;;;;0.00;0.00;;;;;;;;;;5057109;28;20622;-84
2021/09/18 07:12:55;;;;;;;0.13;0.13;;;;;;;;;;5053243;28;20037;-85
2021/09/18 07:15:21;;;;;;;0.00;0.00;;;;;;;;;;5049114;28;20039;-85
2021/09/18 07:17:47;;;;;;;0.10;0.10;;;;;;;;;;5046368;28;20474;-85
2021/09/18 07:20:13;;;;;;;0.00;0.00;;;;;;;;;;5055683;28;20033;-85
2021/09/18 07:22:39;;;;;;;0.10;0.10;;;;;;;;;;5051506;28;20512;-85
2021/09/18 07:25:06;;;;;;;0.00;0.00;;;;;;;;;;5057752;28;20021;-85
2021/09/18 07:27:32;;;;;;;;;;;;;;;;;;5055653;28;20060;-84
2021/09/18 07:29:58;;;;;;;0.00;0.00;;;;;;;;;;5056803;28;20622;-84
2021/09/18 07:32:25;;;;;;;0.05;0.05;;;;;;;;;;5052506;28;20040;-86
2021/09/18 07:34:51;;;;;;;0.00;0.00;;;;;;;;;;5052466;28;20116;-84
2021/09/18 07:37:18;;;;;;;0.00;0.00;;;;;;;;;;5052315;28;20090;-84
2021/09/18 07:39:44;;;;;;;0.10;0.10;;;;;;;;;;5063219;28;20086;-85
2021/09/18 07:42:10;;;;;;;0.50;0.20;;;;;;;;;;5047268;28;20397;-84
2021/09/18 07:44:36;;;;;;;0.00;0.00;;;;;;;;;;5064056;28;20780;-85
2021/09/18 07:47:03;;;;;;;0.00;0.00;;;;;;;;;;5062681;28;20409;-84
2021/09/18 07:49:29;;;;;;;0.10;0.10;;;;;;;;;;5054063;28;20081;-83
2021/09/18 07:51:55;;;;;;;0.03;0.03;;;;;;;;;;5054623;28;20053;-84
2021/09/18 07:54:22;;;;;;;0.00;0.00;;;;;;;;;;5053016;28;20033;-84
2021/09/18 07:56:48;;;;;;;0.00;0.00;;;;;;;;;;5047717;28;20041;-83
2021/09/18 07:59:14;;;;;;;0.15;0.15;;;;;;;;;;5056641;28;21552;-84
2021/09/18 08:01:40;;;;;;;0.10;0.10;;;;;;;;;;5056974;28;20074;-85
2021/09/18 08:04:06;;;;;;;0.00;0.00;;;;;;;;;;5058807;28;20055;-84
2021/09/18 08:06:33;;;;;;;0.03;0.00;;;;;;;;;;5049484;28;20111;-84
2021/09/18 08:09:00;;;;;;;0.00;0.00;;;;;;;;;;5050493;28;20029;-84
2021/09/18 08:11:26;;;;;;;0.30;0.30;;;;;;;;;;5055863;28;20039;-84
2021/09/18 08:13:52;;;;;;;0.00;0.00;;;;;;;;;;5052980;28;20041;-85
2021/09/18 08:16:19;;;;;;;0.75;0.47;;;;;;;;;;5053042;28;20032;-85
2021/09/18 08:18:45;;;;;;;0.00;0.00;;;;;;;;;;5054539;28;20029;-85
2021/09/18 08:21:12;;;;;;;0.00;0.00;;;;;;;;;;5029355;28;20064;-84
2021/09/18 08:23:38;;;;;;;0.13;0.13;;;;;;;;;;5060490;28;20043;-85
2021/09/18 08:26:04;;;;;;;0.52;0.38;;;;;;;;;;5053580;28;20115;-84
2021/09/18 08:28:30;;;;;;;0.00;0.00;;;;;;;;;;5032257;28;20502;-84
2021/09/18 08:30:57;;;;;;;0.00;0.00;;;;;;;;;;5042784;28;20536;-84
2021/09/18 08:33:23;;;;;;;0.20;0.20;;;;;;;;;;5062234;28;20465;-84
2021/09/18 08:35:49;;;;;;;0.20;0.20;;;;;;;;;;5062517;28;20167;-84
2021/09/18 08:38:15;;;;;;;0.03;0.03;;;;;;;;;;5061382;28;20093;-83
2021/09/18 08:40:41;;;;;;;0.47;0.08;;;;;;;;;;5063582;28;20033;-83
2021/09/18 08:43:07;;;;;;;0.15;0.15;;;;;;;;;;5046042;28;20123;-83
2021/09/18 08:45:34;;;;;;;0.00;0.00;;;;;;;;;;5044166;28;20036;-84
2021/09/18 08:48:04;;;;;;;0.10;0.10;;;;;;;;;;5060375;28;20099;-84
2021/09/18 08:50:31;;;;;;;0.00;0.00;;;;;;;;;;5062105;28;20049;-83
2021/09/18 08:52:57;;;;;;;0.10;0.10;;;;;;;;;;5061495;28;20520;-83
2021/09/18 08:55:23;;;;;;;0.52;0.28;;;;;;;;;;5061730;28;20035;-84
2021/09/18 08:57:49;;;;;;;0.35;0.20;;;;;;;;;;5058890;28;20504;-83
2021/09/18 09:00:30;;;;;;;0.13;0.13;;;;;;;;;;5060856;28;20033;-83
2021/09/18 09:03:00;;;;;;;1.00;0.40;;;;;;;;;;5058563;28;20094;-83
2021/09/18 09:05:26;;;;;;;0.00;0.00;;;;;;;;;;5060236;28;20032;-84
2021/09/18 09:07:52;;;;;;;;;;;;;;;;;;5062863;28;20918;-83
2021/09/18 09:10:26;;;;;;;0.20;0.20;;;;;;;;;;5060343;28;20031;-83
2021/09/18 09:12:52;;;;;;;0.10;0.10;;;;;;;;;;5061680;28;20135;-83
2021/09/18 09:15:20;;;;;;;0.10;0.10;;;;;;;;;;5056175;28;20057;-84
2021/09/18 09:17:51;;;;;;;0.03;0.03;;;;;;;;;;5058273;28;20098;-83
2021/09/18 09:20:24;;;;;;;0.38;0.30;;;;;;;;;;5062214;28;20060;-83
2021/09/18 09:22:50;;;;;;;0.25;0.20;;;;;;;;;;5063605;28;20516;-83
2021/09/18 09:25:36;;;;;;;1.77;0.68;;;;;;;;;;5060552;28;20092;-84
2021/09/18 09:28:21;;;;;;;0.50;0.50;;;;;;;;;;5061325;28;20075;-83
2021/09/18 09:30:47;;;;;;;0.50;0.50;;;;;;;;;;5052290;28;20067;-83
2021/09/18 09:33:13;;;;;;;0.88;0.85;;;;;;;;;;5043528;28;20412;-83
2021/09/18 09:35:39;;;;;;;1.55;1.45;;;;;;;;;;5061740;28;20025;-83
2021/09/18 09:38:06;;;;;;;0.60;0.52;;;;;;;;;;5064397;28;20037;-83
2021/09/18 09:40:40;;;;;;;3.92;2.05;;;;;;;;;;5057749;28;20036;-83
2021/09/18 09:43:07;;;;;;;1.00;0.55;;;;;;;;;;5060545;28;20063;-85
2021/09/18 09:45:34;;;;;;;0.20;0.20;;;;;;;;;;5058728;28;20025;-84
2021/09/18 09:48:04;;;;;;;0.68;0.38;;;;;;;;;;5060654;28;20040;-84
2021/09/18 09:50:30;;;;;;;0.10;0.10;;;;;;;;;;5060272;28;20049;-84
2021/09/18 09:52:57;;;;;;;0.15;0.15;;;;;;;;;;5062203;28;20052;-84
2021/09/18 09:55:23;;;;;;;0.32;0.32;;;;;;;;;;5058676;28;20123;-84
2021/09/18 09:58:02;;;;;;;0.10;0.10;;;;;;;;;;5060734;28;20044;-86
2021/09/18 10:00:42;;;;;;;0.00;0.00;;;;;;;;;;5053051;28;20164;-84
2021/09/18 10:03:08;;;;;;;0.00;0.00;;;;;;;;;;5050702;28;20033;-87
2021/09/18 10:05:35;;;;;;;0.13;0.13;;;;;;;;;;5059203;28;20040;-84
2021/09/18 10:08:02;;;;;;;0.00;0.00;;;;;;;;;;5061952;28;20031;-84
2021/09/18 10:10:29;;;;;;;0.05;0.05;;;;;;;;;;5061074;28;20035;-85
2021/09/18 10:12:56;;;;;;;0.00;0.00;;;;;;;;;;5059109;28;20139;-85
2021/09/18 10:15:24;;;;;;;0.15;0.15;;;;;;;;;;5058568;28;20564;-85
2021/09/18 10:17:50;;;;;;;1.13;0.20;;;;;;;;;;5056689;28;20543;-85
2021/09/18 10:23:16;;;;;;;1.67;0.13;;;;;;;;;;5008872;28;20706;-85
2021/09/18 10:25:45;;;;;;;0.20;0.20;;;;;;;;;;5008647;28;20034;-85
2021/09/18 10:28:40;;;;;;;0.15;0.15;;;;;;;;;;5009223;28;20049;-86
2021/09/18 10:31:12;;;;;;;0.80;0.32;;;;;;;;;;5010833;28;20510;-85
2021/09/18 10:33:40;;;;;;;0.10;0.10;;;;;;;;;;5010738;28;20248;-85
2021/09/18 10:36:07;;;;;;;5.50;1.25;;;;;;;;;;5009254;28;20112;-85
2021/09/18 10:38:34;;;;;;;3.75;0.57;;;;;;;;;;5011868;28;20033;-85
2021/09/18 10:41:05;;;;;;;2.92;1.75;;;;;;;;;;5008244;28;20037;-85
2021/09/18 10:43:33;;;;;;;1.33;0.60;;;;;;;;;;5004560;28;20030;-85
2021/09/18 10:45:59;;;;;;;4.00;2.97;;;;;;;;;;5009486;28;20067;-85
2021/09/18 10:48:25;;;;;;;;;;;;;;;;;;5009499;28;20045;-86
2021/09/18 10:50:52;;;;;;;3.00;0.75;;;;;;;;;;5013910;28;19969;-86
2021/09/18 10:53:19;;;;;;;0.10;0.10;;;;;;;;;;5005865;28;20415;-85
2021/09/18 10:55:56;;;;;;;0.70;0.50;;;;;;;;;;5004776;28;20034;-85
2021/09/18 10:58:22;;;;;;;0.10;0.10;;;;;;;;;;5010453;28;20038;-85
2021/09/18 11:00:52;;;;;;;;;;;;;;;;;;5041856;28;20457;-84
2021/09/18 11:03:37;;;;;;;0.20;0.20;;;;;;;;;;5059222;28;20510;-86
2021/09/18 11:06:03;;;;;;;0.10;0.10;;;;;;;;;;5058482;28;20489;-85
2021/09/18 11:08:33;;;;;;;0.28;0.28;;;;;;;;;;5059317;28;20086;-84
2021/09/18 11:11:00;;;;;;;0.20;0.20;;;;;;;;;;5051332;28;20036;-85
2021/09/18 11:13:32;;;;;;;0.30;0.30;;;;;;;;;;5055756;28;20587;-85
2021/09/18 11:16:04;;;;;;;0.10;0.10;;;;;;;;;;5063448;28;20093;-84
2021/09/18 11:18:36;;;;;;;0.10;0.10;;;;;;;;;;5057310;28;20025;-84
2021/09/18 11:21:02;;;;;;;0.05;0.05;;;;;;;;;;5050166;28;20032;-85
2021/09/18 11:23:51;;;;;;;0.10;0.10;;;;;;;;;;5050235;28;20401;-85
2021/09/18 11:26:34;;;;;;;0.65;0.55;;;;;;;;;;5029743;28;20159;-86
2021/09/18 11:29:11;;;;;;;0.20;0.17;;;;;;;;;;5044446;28;20448;-86
2021/09/18 11:31:38;;;;;;;0.00;0.00;;;;;;;;;;5060924;28;20032;-83
2021/09/18 11:34:04;;;;;;;;;;;;;;;;;;5058790;28;20044;-83
2021/09/18 11:36:30;;;;;;;0.10;0.10;;;;;;;;;;5055679;28;19918;-84
2021/09/18 11:38:56;;;;;;;0.17;0.17;;;;;;;;;;5058285;28;20904;-83
2021/09/18 11:41:22;;;;;;;0.00;0.00;;;;;;;;;;5056466;28;20408;-83
2021/09/18 11:43:48;;;;;;;0.13;0.13;;;;;;;;;;5059106;28;20036;-83
2021/09/18 11:46:24;;;;;;;0.00;0.00;;;;;;;;;;5058310;28;20024;-83
2021/09/18 11:48:58;;;;;;;0.20;0.20;;;;;;;;;;5044955;28;20068;-83
2021/09/18 11:51:24;;;;;;;0.00;0.00;;;;;;;;;;5056551;28;20131;-83
2021/09/18 11:53:58;;;;;;;0.20;0.20;;;;;;;;;;5055939;28;20147;-84
2021/09/18 11:56:24;;;;;;;7.13;0.80;;;;;;;;;;5057923;28;20028;-83
2021/09/18 11:58:50;;;;;;;0.10;0.10;;;;;;;;;;5042063;28;20505;-83
2021/09/18 12:01:16;;;;;;;0.03;0.03;;;;;;;;;;5055817;28;20031;-83
2021/09/18 12:03:44;;;;;;;0.25;0.25;;;;;;;;;;5053793;28;20111;-83
2021/09/18 12:06:11;;;;;;;0.30;0.30;;;;;;;;;;5058890;28;20043;-83
2021/09/18 12:08:38;;;;;;;0.70;0.30;;;;;;;;;;5059234;28;20064;-84
2021/09/18 12:11:07;;;;;;;0.20;0.20;;;;;;;;;;5061824;28;20039;-83
2021/09/18 12:13:34;;;;;;;0.63;0.63;;;;;;;;;;5062641;28;20047;-82
2021/09/18 12:16:02;;;;;;;;;;;;;;;;;;5060174;28;20024;-82
2021/09/18 12:18:32;;;;;;;0.10;0.10;;;;;;;;;;5061087;28;19912;-83
2021/09/18 12:21:03;;;;;;;0.30;0.30;;;;;;;;;;5060668;28;20047;-84
2021/09/18 12:23:30;;;;;;;1.08;0.57;;;;;;;;;;5060786;28;20039;-83
2021/09/18 12:26:00;;;;;;;0.93;0.40;;;;;;;;;;5060558;28;20031;-84
2021/09/18 12:28:27;;;;;;;0.13;0.13;;;;;;;;;;5058756;28;20029;-83
2021/09/18 12:30:54;;;;;;;0.30;0.30;;;;;;;;;;5058695;28;20078;-83
2021/09/18 12:33:27;;;;;;;0.10;0.10;;;;;;;;;;5062161;28;20037;-84
2021/09/18 12:36:01;;;;;;;0.10;0.10;;;;;;;;;;5062168;28;20497;-84
2021/09/18 12:38:29;;;;;;;0.70;0.40;;;;;;;;;;5061676;28;20104;-84
2021/09/18 12:41:00;;;;;;;0.57;0.57;;;;;;;;;;5059510;28;20123;-83
2021/09/18 12:43:26;;;;;;;0.15;0.15;;;;;;;;;;5043884;28;20390;-83
2021/09/18 12:46:02;;;;;;;0.45;0.45;;;;;;;;;;5060337;28;20082;-83
2021/09/18 12:48:28;;;;;;;0.93;0.60;;;;;;;;;;5059939;28;20043;-83
2021/09/18 12:51:01;;;;;;;0.32;0.32;;;;;;;;;;5062438;28;20449;-83
2021/09/18 12:53:31;;;;;;;0.43;0.43;;;;;;;;;;5048535;28;20045;-83
2021/09/18 12:56:07;;;;;;;3.47;0.73;;;;;;;;;;5062445;28;20017;-84
2021/09/18 12:58:33;;;;;;;0.20;0.20;;;;;;;;;;5061456;28;20048;-84
2021/09/18 13:00:59;;;;;;;1.38;0.82;;;;;;;;;;5042328;28;20447;-84
2021/09/18 13:03:26;;;;;;;0.13;0.13;;;;;;;;;;5042763;28;20036;-84
2021/09/18 13:06:04;;;;;;;0.40;0.40;;;;;;;;;;5061659;28;20108;-83
2021/09/18 13:08:50;;;;;;;1.10;0.40;;;;;;;;;;5059879;28;20930;-83
2021/09/18 13:11:21;;;;;;;1.50;0.32;;;;;;;;;;5061723;28;20024;-85
2021/09/18 13:13:47;;;;;;;0.63;0.63;;;;;;;;;;5062721;28;20053;-84
2021/09/18 13:16:14;;;;;;;0.45;0.25;;;;;;;;;;5060397;28;20051;-84
2021/09/18 13:18:40;;;;;;;0.30;0.30;;;;;;;;;;5060155;28;20050;-85
2021/09/18 13:21:06;;;;;;;0.73;0.73;;;;;;;;;;5061528;28;20047;-85
2021/09/18 13:23:33;;;;;;;1.35;1.00;;;;;;;;;;5060834;28;20044;-85
2021/09/18 13:25:59;;;;;;;0.52;0.32;;;;;;;;;;5063798;28;20027;-85
2021/09/18 13:28:28;;;;;;;0.22;0.22;;;;;;;;;;5059307;28;21457;-86
2021/09/18 13:30:54;;;;;;;0.17;0.17;;;;;;;;;;5060406;28;20090;-85
2021/09/18 13:33:20;;;;;;;0.10;0.10;;;;;;;;;;5059243;28;20047;-85
2021/09/18 13:35:46;;;;;;;0.00;0.00;;;;;;;;;;5058758;28;20028;-85
2021/09/18 13:38:12;;;;;;;0.30;0.30;;;;;;;;;;5062146;28;20412;-85
2021/09/18 13:40:40;;;;;;;0.60;0.55;;;;;;;;;;5060644;28;20445;-88
2021/09/18 13:43:08;;;;;;;0.28;0.28;;;;;;;;;;5042184;28;20483;-85
2021/09/18 13:45:34;;;;;;;0.35;0.30;;;;;;;;;;5061009;28;20024;-85
2021/09/18 13:48:00;;;;;;;8.00;1.50;;;;;;;;;;5040391;28;20052;-85
2021/09/18 13:50:26;;;;;;;0.68;0.68;;;;;;;;;;5040436;28;20048;-86
2021/09/18 13:52:52;;;;;;;0.52;0.52;;;;;;;;;;5040994;28;20115;-85
2021/09/18 13:55:18;;;;;;;0.10;0.10;;;;;;;;;;5038362;28;20044;-86
2021/09/18 13:57:44;;;;;;;1.35;0.47;;;;;;;;;;5038839;28;20453;-85
2021/09/18 14:00:10;;;;;;;0.00;0.00;;;;;;;;;;5040944;28;20029;-84
2021/09/18 14:02:36;;;;;;;0.20;0.20;;;;;;;;;;5039795;28;20041;-83
2021/09/18 14:05:02;;;;;;;0.10;0.10;;;;;;;;;;5039776;28;20037;-85
2021/09/18 14:07:28;;;;;;;0.38;0.38;;;;;;;;;;5035902;28;20059;-85
2021/09/18 14:09:56;;;;;;;0.35;0.35;;;;;;;;;;5034171;28;20064;-86
2021/09/18 14:12:22;;;;;;;1.75;0.25;;;;;;;;;;5033340;28;20044;-86
2021/09/18 14:14:48;;;;;;;0.32;0.32;;;;;;;;;;5033764;28;20034;-86
2021/09/18 14:17:14;;;;;;;2.70;1.35;;;;;;;;;;5034842;28;20094;-86
2021/09/18 14:19:41;;;;;;;0.40;0.40;;;;;;;;;;5034869;28;20029;-85
2021/09/18 14:22:07;;;;;;;0.30;0.10;;;;;;;;;;5038268;28;20037;-84
2021/09/18 14:24:33;;;;;;;0.10;0.10;;;;;;;;;;5033095;28;20078;-86
2021/09/18 14:26:59;;;;;;;0.00;0.00;;;;;;;;;;5031391;28;20041;-85
2021/09/18 14:29:26;;;;;;;0.65;0.43;;;;;;;;;;5025506;28;20553;-85
2021/09/18 14:31:52;;;;;;;0.52;0.40;;;;;;;;;;5034517;28;20029;-85
2021/09/18 14:34:18;;;;;;;2.28;0.65;;;;;;;;;;5032289;28;20029;-85
2021/09/18 14:36:44;;;;;;;0.52;0.38;;;;;;;;;;5034449;28;20041;-86
2021/09/18 14:39:10;;;;;;;0.32;0.32;;;;;;;;;;5038338;28;21565;-85
2021/09/18 14:41:37;;;;;;;0.20;0.20;;;;;;;;;;5028176;28;20144;-86
2021/09/18 14:44:03;;;;;;;0.35;0.35;;;;;;;;;;5034398;28;20036;-85
2021/09/18 14:46:29;;;;;;;0.75;0.25;;;;;;;;;;5030491;28;20125;-86
2021/09/18 14:48:55;;;;;;;0.10;0.10;;;;;;;;;;5032529;28;20112;-85